sensor_id;sensor_type;location;lat;lon;timestamp;pressure;altitude;pressure_sealevel;temperature;humidity
60642;BME280;46837;52.446;-1.930;2023-06-14T00:00:09;100455.86;;;17.87;40.44
60642;BME280;46837;52.446;-1.930;2023-06-14T00:01:09;100451.15;;;17.87;40.44
60642;BME280;46837;52.446;-1.930;2023-06-14T00:02:11;100452.60;;;17.87;40.53
60642;BME280;46837;52.446;-1.930;2023-06-14T00:03:09;100452.35;;;17.86;40.57
60642;BME280;46837;52.446;-1.930;2023-06-14T00:04:09;100452.50;;;17.76;40.67
60642;BME280;46837;52.446;-1.930;2023-06-14T00:05:09;100453.98;;;17.77;40.64
60642;BME280;46837;52.446;-1.930;2023-06-14T00:06:09;100454.79;;;17.74;40.85
60642;BME280;46837;52.446;-1.930;2023-06-14T00:07:11;100456.60;;;17.69;40.91
60642;BME280;46837;52.446;-1.930;2023-06-14T00:08:11;100456.63;;;17.71;41.04
60642;BME280;46837;52.446;-1.930;2023-06-14T00:09:09;100454.38;;;17.70;41.00
60642;BME280;46837;52.446;-1.930;2023-06-14T00:10:11;100454.96;;;17.65;41.13
60642;BME280;46837;52.446;-1.930;2023-06-14T00:11:09;100454.17;;;17.64;41.16
60642;BME280;46837;52.446;-1.930;2023-06-14T00:12:09;100452.73;;;17.65;41.35
60642;BME280;46837;52.446;-1.930;2023-06-14T00:13:11;100452.86;;;17.64;41.44
60642;BME280;46837;52.446;-1.930;2023-06-14T00:14:09;100449.99;;;17.63;41.52
60642;BME280;46837;52.446;-1.930;2023-06-14T00:15:09;100448.46;;;17.62;41.51
60642;BME280;46837;52.446;-1.930;2023-06-14T00:16:09;100448.96;;;17.62;41.69
60642;BME280;46837;52.446;-1.930;2023-06-14T00:17:10;100449.89;;;17.62;41.68
60642;BME280;46837;52.446;-1.930;2023-06-14T00:18:09;100448.64;;;17.57;41.86
60642;BME280;46837;52.446;-1.930;2023-06-14T00:19:09;100447.38;;;17.46;42.30
60642;BME280;46837;52.446;-1.930;2023-06-14T00:20:10;100449.23;;;17.47;42.43
60642;BME280;46837;52.446;-1.930;2023-06-14T00:21:09;100446.94;;;17.48;42.68
60642;BME280;46837;52.446;-1.930;2023-06-14T00:22:09;100449.01;;;17.41;42.96
60642;BME280;46837;52.446;-1.930;2023-06-14T00:23:09;100449.04;;;17.40;43.20
60642;BME280;46837;52.446;-1.930;2023-06-14T00:24:09;100446.80;;;17.37;43.46
60642;BME280;46837;52.446;-1.930;2023-06-14T00:25:09;100447.10;;;17.35;43.69
60642;BME280;46837;52.446;-1.930;2023-06-14T00:26:09;100446.36;;;17.28;44.08
60642;BME280;46837;52.446;-1.930;2023-06-14T00:27:09;100450.23;;;17.28;44.20
60642;BME280;46837;52.446;-1.930;2023-06-14T00:28:09;100446.55;;;17.24;44.55
60642;BME280;46837;52.446;-1.930;2023-06-14T00:29:09;100445.98;;;17.25;44.65
60642;BME280;46837;52.446;-1.930;2023-06-14T00:30:09;100448.04;;;17.19;44.96
60642;BME280;46837;52.446;-1.930;2023-06-14T00:31:09;100446.42;;;17.16;45.20
60642;BME280;46837;52.446;-1.930;2023-06-14T00:32:09;100448.74;;;17.16;45.41
60642;BME280;46837;52.446;-1.930;2023-06-14T00:33:09;100450.44;;;17.17;45.55
60642;BME280;46837;52.446;-1.930;2023-06-14T00:34:09;100446.45;;;17.15;45.71
60642;BME280;46837;52.446;-1.930;2023-06-14T00:35:09;100445.83;;;17.10;45.97
60642;BME280;46837;52.446;-1.930;2023-06-14T00:36:09;100445.11;;;17.10;46.14
60642;BME280;46837;52.446;-1.930;2023-06-14T00:37:09;100444.89;;;17.04;46.32
60642;BME280;46837;52.446;-1.930;2023-06-14T00:38:09;100446.55;;;16.96;46.66
60642;BME280;46837;52.446;-1.930;2023-06-14T00:39:09;100445.58;;;16.98;46.77
60642;BME280;46837;52.446;-1.930;2023-06-14T00:40:09;100443.37;;;16.98;46.86
60642;BME280;46837;52.446;-1.930;2023-06-14T00:41:09;100444.12;;;16.95;46.94
60642;BME280;46837;52.446;-1.930;2023-06-14T00:42:09;100447.08;;;16.91;47.28
60642;BME280;46837;52.446;-1.930;2023-06-14T00:43:09;100448.93;;;16.84;47.38
60642;BME280;46837;52.446;-1.930;2023-06-14T00:44:09;100448.75;;;16.78;47.65
60642;BME280;46837;52.446;-1.930;2023-06-14T00:45:09;100444.41;;;16.80;47.70
60642;BME280;46837;52.446;-1.930;2023-06-14T00:46:09;100444.43;;;16.76;47.77
60642;BME280;46837;52.446;-1.930;2023-06-14T00:47:09;100446.98;;;16.75;48.04
60642;BME280;46837;52.446;-1.930;2023-06-14T00:48:09;100446.38;;;16.73;48.08
60642;BME280;46837;52.446;-1.930;2023-06-14T00:49:09;100450.91;;;16.70;48.28
60642;BME280;46837;52.446;-1.930;2023-06-14T00:50:09;100450.69;;;16.70;48.23
60642;BME280;46837;52.446;-1.930;2023-06-14T00:51:09;100447.93;;;16.70;48.32
60642;BME280;46837;52.446;-1.930;2023-06-14T00:52:09;100449.71;;;16.66;48.38
60642;BME280;46837;52.446;-1.930;2023-06-14T00:53:09;100454.02;;;16.56;48.63
60642;BME280;46837;52.446;-1.930;2023-06-14T00:54:09;100448.07;;;16.56;48.63
60642;BME280;46837;52.446;-1.930;2023-06-14T00:55:09;100450.40;;;16.51;48.64
60642;BME280;46837;52.446;-1.930;2023-06-14T00:56:09;100452.29;;;16.47;48.78
60642;BME280;46837;52.446;-1.930;2023-06-14T00:57:09;100456.48;;;16.44;48.74
60642;BME280;46837;52.446;-1.930;2023-06-14T00:58:09;100453.35;;;16.43;48.81
60642;BME280;46837;52.446;-1.930;2023-06-14T00:59:09;100455.22;;;16.40;48.88
60642;BME280;46837;52.446;-1.930;2023-06-14T01:00:11;100454.32;;;16.28;49.13
60642;BME280;46837;52.446;-1.930;2023-06-14T01:01:09;100459.74;;;16.26;49.16
60642;BME280;46837;52.446;-1.930;2023-06-14T01:02:09;100456.25;;;16.28;49.01
60642;BME280;46837;52.446;-1.930;2023-06-14T01:03:09;100459.34;;;16.17;49.26
60642;BME280;46837;52.446;-1.930;2023-06-14T01:04:09;100458.13;;;16.17;49.16
60642;BME280;46837;52.446;-1.930;2023-06-14T01:05:10;100458.02;;;16.17;49.19
60642;BME280;46837;52.446;-1.930;2023-06-14T01:08:24;100458.20;;;16.12;49.25
60642;BME280;46837;52.446;-1.930;2023-06-14T01:11:11;100458.14;;;16.15;49.33
60642;BME280;46837;52.446;-1.930;2023-06-14T01:14:09;100460.45;;;16.05;49.78
60642;BME280;46837;52.446;-1.930;2023-06-14T01:15:09;100459.19;;;16.04;49.79
60642;BME280;46837;52.446;-1.930;2023-06-14T01:16:09;100460.10;;;15.95;50.06
60642;BME280;46837;52.446;-1.930;2023-06-14T01:17:09;100456.80;;;15.99;50.03
60642;BME280;46837;52.446;-1.930;2023-06-14T01:18:09;100458.81;;;15.90;50.34
60642;BME280;46837;52.446;-1.930;2023-06-14T01:19:11;100461.15;;;15.91;50.21
60642;BME280;46837;52.446;-1.930;2023-06-14T01:20:12;100458.70;;;15.81;50.77
60642;BME280;46837;52.446;-1.930;2023-06-14T01:22:09;100460.47;;;15.89;50.49
60642;BME280;46837;52.446;-1.930;2023-06-14T01:23:09;100459.66;;;15.84;50.72
60642;BME280;46837;52.446;-1.930;2023-06-14T01:24:11;100460.38;;;15.83;50.79
60642;BME280;46837;52.446;-1.930;2023-06-14T01:25:09;100455.60;;;15.75;51.11
60642;BME280;46837;52.446;-1.930;2023-06-14T01:26:09;100457.15;;;15.78;51.08
60642;BME280;46837;52.446;-1.930;2023-06-14T01:27:09;100461.69;;;15.80;51.12
60642;BME280;46837;52.446;-1.930;2023-06-14T01:28:13;100460.02;;;15.82;51.09
60642;BME280;46837;52.446;-1.930;2023-06-14T01:29:09;100460.59;;;15.80;51.14
60642;BME280;46837;52.446;-1.930;2023-06-14T01:30:09;100463.29;;;15.80;51.27
60642;BME280;46837;52.446;-1.930;2023-06-14T01:31:09;100463.87;;;15.79;51.38
60642;BME280;46837;52.446;-1.930;2023-06-14T01:32:09;100462.68;;;15.80;51.35
60642;BME280;46837;52.446;-1.930;2023-06-14T01:33:09;100465.33;;;15.83;51.34
60642;BME280;46837;52.446;-1.930;2023-06-14T01:34:09;100464.31;;;15.83;51.36
60642;BME280;46837;52.446;-1.930;2023-06-14T01:35:09;100464.50;;;15.83;51.33
60642;BME280;46837;52.446;-1.930;2023-06-14T01:36:09;100465.43;;;15.77;51.55
60642;BME280;46837;52.446;-1.930;2023-06-14T01:37:09;100461.95;;;15.73;51.61
60642;BME280;46837;52.446;-1.930;2023-06-14T01:38:09;100464.80;;;15.75;51.58
60642;BME280;46837;52.446;-1.930;2023-06-14T01:39:09;100465.07;;;15.71;51.82
60642;BME280;46837;52.446;-1.930;2023-06-14T01:40:09;100465.29;;;15.71;51.88
60642;BME280;46837;52.446;-1.930;2023-06-14T01:41:09;100466.02;;;15.69;51.89
60642;BME280;46837;52.446;-1.930;2023-06-14T01:42:09;100466.24;;;15.69;52.00
60642;BME280;46837;52.446;-1.930;2023-06-14T01:43:09;100466.73;;;15.63;52.17
60642;BME280;46837;52.446;-1.930;2023-06-14T01:44:09;100468.53;;;15.61;52.35
60642;BME280;46837;52.446;-1.930;2023-06-14T01:45:09;100470.63;;;15.60;52.37
60642;BME280;46837;52.446;-1.930;2023-06-14T01:46:09;100473.38;;;15.56;52.64
60642;BME280;46837;52.446;-1.930;2023-06-14T01:47:09;100471.53;;;15.51;53.03
60642;BME280;46837;52.446;-1.930;2023-06-14T01:48:09;100467.31;;;15.53;52.93
60642;BME280;46837;52.446;-1.930;2023-06-14T01:49:09;100470.66;;;15.54;52.85
60642;BME280;46837;52.446;-1.930;2023-06-14T01:50:09;100468.31;;;15.51;52.99
60642;BME280;46837;52.446;-1.930;2023-06-14T01:51:09;100465.93;;;15.49;53.10
60642;BME280;46837;52.446;-1.930;2023-06-14T01:52:09;100470.38;;;15.50;53.03
60642;BME280;46837;52.446;-1.930;2023-06-14T01:53:09;100464.55;;;15.49;53.19
60642;BME280;46837;52.446;-1.930;2023-06-14T01:54:09;100465.62;;;15.48;53.28
60642;BME280;46837;52.446;-1.930;2023-06-14T01:55:09;100468.21;;;15.47;53.34
60642;BME280;46837;52.446;-1.930;2023-06-14T01:56:09;100465.06;;;15.38;53.64
60642;BME280;46837;52.446;-1.930;2023-06-14T01:57:09;100466.23;;;15.42;53.50
60642;BME280;46837;52.446;-1.930;2023-06-14T01:58:09;100467.82;;;15.42;53.60
60642;BME280;46837;52.446;-1.930;2023-06-14T01:59:09;100467.43;;;15.39;53.63
60642;BME280;46837;52.446;-1.930;2023-06-14T02:00:11;100466.31;;;15.36;53.74
60642;BME280;46837;52.446;-1.930;2023-06-14T02:01:09;100466.62;;;15.33;53.89
60642;BME280;46837;52.446;-1.930;2023-06-14T02:02:09;100470.70;;;15.32;53.87
60642;BME280;46837;52.446;-1.930;2023-06-14T02:03:09;100474.03;;;15.24;54.10
60642;BME280;46837;52.446;-1.930;2023-06-14T02:04:09;100472.70;;;15.21;54.18
60642;BME280;46837;52.446;-1.930;2023-06-14T02:05:09;100472.20;;;15.21;54.35
60642;BME280;46837;52.446;-1.930;2023-06-14T02:06:09;100471.05;;;15.20;54.42
60642;BME280;46837;52.446;-1.930;2023-06-14T02:07:09;100468.55;;;15.18;54.45
60642;BME280;46837;52.446;-1.930;2023-06-14T02:08:09;100470.04;;;15.17;54.57
60642;BME280;46837;52.446;-1.930;2023-06-14T02:09:09;100467.35;;;15.16;54.72
60642;BME280;46837;52.446;-1.930;2023-06-14T02:10:09;100470.13;;;15.15;54.62
60642;BME280;46837;52.446;-1.930;2023-06-14T02:11:09;100467.21;;;15.15;54.72
60642;BME280;46837;52.446;-1.930;2023-06-14T02:12:09;100465.89;;;15.14;54.88
60642;BME280;46837;52.446;-1.930;2023-06-14T02:13:09;100468.39;;;15.07;55.10
60642;BME280;46837;52.446;-1.930;2023-06-14T02:14:09;100466.35;;;15.08;55.11
60642;BME280;46837;52.446;-1.930;2023-06-14T02:15:09;100473.06;;;15.09;55.04
60642;BME280;46837;52.446;-1.930;2023-06-14T02:16:09;100467.54;;;15.05;55.16
60642;BME280;46837;52.446;-1.930;2023-06-14T02:17:09;100470.64;;;15.02;55.20
60642;BME280;46837;52.446;-1.930;2023-06-14T02:18:09;100469.09;;;15.02;55.24
60642;BME280;46837;52.446;-1.930;2023-06-14T02:19:09;100469.22;;;14.91;55.52
60642;BME280;46837;52.446;-1.930;2023-06-14T02:20:09;100470.07;;;14.94;55.45
60642;BME280;46837;52.446;-1.930;2023-06-14T02:21:09;100469.14;;;14.94;55.61
60642;BME280;46837;52.446;-1.930;2023-06-14T02:22:09;100472.80;;;14.91;55.66
60642;BME280;46837;52.446;-1.930;2023-06-14T02:23:10;100469.61;;;14.90;55.81
60642;BME280;46837;52.446;-1.930;2023-06-14T02:24:09;100471.27;;;14.90;55.78
60642;BME280;46837;52.446;-1.930;2023-06-14T02:25:09;100471.07;;;14.94;55.70
60642;BME280;46837;52.446;-1.930;2023-06-14T02:26:09;100473.07;;;14.96;55.57
60642;BME280;46837;52.446;-1.930;2023-06-14T02:27:09;100468.82;;;14.87;55.94
60642;BME280;46837;52.446;-1.930;2023-06-14T02:28:09;100475.07;;;14.84;56.05
60642;BME280;46837;52.446;-1.930;2023-06-14T02:29:13;100466.51;;;14.86;56.07
60642;BME280;46837;52.446;-1.930;2023-06-14T02:30:09;100469.27;;;14.86;56.06
60642;BME280;46837;52.446;-1.930;2023-06-14T02:31:09;100467.05;;;14.77;56.33
60642;BME280;46837;52.446;-1.930;2023-06-14T02:32:10;100466.30;;;14.80;56.15
60642;BME280;46837;52.446;-1.930;2023-06-14T02:33:09;100463.91;;;14.84;56.06
60642;BME280;46837;52.446;-1.930;2023-06-14T02:34:09;100465.41;;;14.88;56.05
60642;BME280;46837;52.446;-1.930;2023-06-14T02:35:09;100463.82;;;14.85;56.17
60642;BME280;46837;52.446;-1.930;2023-06-14T02:36:09;100465.89;;;14.82;56.26
60642;BME280;46837;52.446;-1.930;2023-06-14T02:37:09;100462.89;;;14.85;56.24
60642;BME280;46837;52.446;-1.930;2023-06-14T02:38:09;100465.06;;;14.85;56.19
60642;BME280;46837;52.446;-1.930;2023-06-14T02:39:09;100464.66;;;14.79;56.48
60642;BME280;46837;52.446;-1.930;2023-06-14T02:40:09;100466.01;;;14.75;56.50
60642;BME280;46837;52.446;-1.930;2023-06-14T02:41:09;100466.87;;;14.72;56.76
60642;BME280;46837;52.446;-1.930;2023-06-14T02:42:09;100468.94;;;14.68;56.92
60642;BME280;46837;52.446;-1.930;2023-06-14T02:43:09;100466.46;;;14.69;56.88
60642;BME280;46837;52.446;-1.930;2023-06-14T02:44:09;100467.79;;;14.68;57.03
60642;BME280;46837;52.446;-1.930;2023-06-14T02:45:09;100467.26;;;14.71;56.93
60642;BME280;46837;52.446;-1.930;2023-06-14T02:46:09;100467.47;;;14.73;57.03
60642;BME280;46837;52.446;-1.930;2023-06-14T02:47:09;100466.93;;;14.72;57.02
60642;BME280;46837;52.446;-1.930;2023-06-14T02:48:09;100468.61;;;14.69;57.27
60642;BME280;46837;52.446;-1.930;2023-06-14T02:49:09;100467.50;;;14.69;57.36
60642;BME280;46837;52.446;-1.930;2023-06-14T02:50:09;100466.02;;;14.71;57.46
60642;BME280;46837;52.446;-1.930;2023-06-14T02:51:09;100464.95;;;14.72;57.48
60642;BME280;46837;52.446;-1.930;2023-06-14T02:52:09;100468.66;;;14.70;57.63
60642;BME280;46837;52.446;-1.930;2023-06-14T02:53:09;100464.68;;;14.64;57.82
60642;BME280;46837;52.446;-1.930;2023-06-14T02:54:09;100467.21;;;14.64;57.92
60642;BME280;46837;52.446;-1.930;2023-06-14T02:55:09;100468.20;;;14.64;58.03
60642;BME280;46837;52.446;-1.930;2023-06-14T02:56:09;100467.22;;;14.50;58.50
60642;BME280;46837;52.446;-1.930;2023-06-14T02:57:09;100465.87;;;14.43;58.78
60642;BME280;46837;52.446;-1.930;2023-06-14T02:58:09;100465.68;;;14.47;58.83
60642;BME280;46837;52.446;-1.930;2023-06-14T02:59:09;100465.46;;;14.47;58.71
60642;BME280;46837;52.446;-1.930;2023-06-14T03:00:09;100467.16;;;14.48;58.83
60642;BME280;46837;52.446;-1.930;2023-06-14T03:01:09;100469.69;;;14.48;58.81
60642;BME280;46837;52.446;-1.930;2023-06-14T03:02:09;100467.24;;;14.45;59.11
60642;BME280;46837;52.446;-1.930;2023-06-14T03:03:13;100469.83;;;14.45;59.13
60642;BME280;46837;52.446;-1.930;2023-06-14T03:04:09;100469.39;;;14.45;59.28
60642;BME280;46837;52.446;-1.930;2023-06-14T03:05:09;100471.20;;;14.38;59.47
60642;BME280;46837;52.446;-1.930;2023-06-14T03:06:09;100470.32;;;14.37;59.69
60642;BME280;46837;52.446;-1.930;2023-06-14T03:07:13;100472.30;;;14.37;59.71
60642;BME280;46837;52.446;-1.930;2023-06-14T03:08:09;100474.36;;;14.35;59.84
60642;BME280;46837;52.446;-1.930;2023-06-14T03:09:09;100472.22;;;14.33;59.90
60642;BME280;46837;52.446;-1.930;2023-06-14T03:10:11;100474.89;;;14.31;60.20
60642;BME280;46837;52.446;-1.930;2023-06-14T03:11:09;100473.10;;;14.33;60.00
60642;BME280;46837;52.446;-1.930;2023-06-14T03:12:09;100470.05;;;14.38;59.90
60642;BME280;46837;52.446;-1.930;2023-06-14T03:13:09;100472.14;;;14.37;60.05
60642;BME280;46837;52.446;-1.930;2023-06-14T03:14:09;100473.29;;;14.31;60.36
60642;BME280;46837;52.446;-1.930;2023-06-14T03:15:09;100468.05;;;14.33;60.31
60642;BME280;46837;52.446;-1.930;2023-06-14T03:16:09;100471.59;;;14.37;60.14
60642;BME280;46837;52.446;-1.930;2023-06-14T03:17:09;100470.30;;;14.40;60.04
60642;BME280;46837;52.446;-1.930;2023-06-14T03:18:09;100470.62;;;14.35;60.28
60642;BME280;46837;52.446;-1.930;2023-06-14T03:19:09;100471.50;;;14.35;60.28
60642;BME280;46837;52.446;-1.930;2023-06-14T03:20:09;100472.55;;;14.32;60.52
60642;BME280;46837;52.446;-1.930;2023-06-14T03:21:10;100469.45;;;14.37;60.39
60642;BME280;46837;52.446;-1.930;2023-06-14T03:22:09;100470.60;;;14.39;60.24
60642;BME280;46837;52.446;-1.930;2023-06-14T03:23:09;100465.93;;;14.36;60.46
60642;BME280;46837;52.446;-1.930;2023-06-14T03:24:09;100466.64;;;14.37;60.43
60642;BME280;46837;52.446;-1.930;2023-06-14T03:25:09;100464.55;;;14.36;60.47
60642;BME280;46837;52.446;-1.930;2023-06-14T03:26:09;100465.16;;;14.39;60.36
60642;BME280;46837;52.446;-1.930;2023-06-14T03:27:09;100464.03;;;14.33;60.59
60642;BME280;46837;52.446;-1.930;2023-06-14T03:28:09;100464.80;;;14.35;60.60
60642;BME280;46837;52.446;-1.930;2023-06-14T03:29:09;100464.46;;;14.35;60.61
60642;BME280;46837;52.446;-1.930;2023-06-14T03:30:09;100464.33;;;14.32;60.79
60642;BME280;46837;52.446;-1.930;2023-06-14T03:31:09;100466.04;;;14.31;60.76
60642;BME280;46837;52.446;-1.930;2023-06-14T03:32:09;100470.65;;;14.30;60.89
60642;BME280;46837;52.446;-1.930;2023-06-14T03:33:09;100467.08;;;14.31;60.83
60642;BME280;46837;52.446;-1.930;2023-06-14T03:34:09;100466.67;;;14.35;60.72
60642;BME280;46837;52.446;-1.930;2023-06-14T03:35:09;100472.00;;;14.32;60.84
60642;BME280;46837;52.446;-1.930;2023-06-14T03:36:09;100468.48;;;14.28;61.03
60642;BME280;46837;52.446;-1.930;2023-06-14T03:37:09;100469.09;;;14.33;60.83
60642;BME280;46837;52.446;-1.930;2023-06-14T03:38:09;100470.22;;;14.36;60.66
60642;BME280;46837;52.446;-1.930;2023-06-14T03:39:09;100465.73;;;14.33;60.70
60642;BME280;46837;52.446;-1.930;2023-06-14T03:40:09;100464.00;;;14.36;60.63
60642;BME280;46837;52.446;-1.930;2023-06-14T03:41:09;100462.60;;;14.35;60.68
60642;BME280;46837;52.446;-1.930;2023-06-14T03:42:09;100460.29;;;14.33;60.72
60642;BME280;46837;52.446;-1.930;2023-06-14T03:43:09;100458.89;;;14.31;60.77
60642;BME280;46837;52.446;-1.930;2023-06-14T03:44:09;100464.30;;;14.26;60.92
60642;BME280;46837;52.446;-1.930;2023-06-14T03:45:09;100465.21;;;14.29;60.73
60642;BME280;46837;52.446;-1.930;2023-06-14T03:46:09;100466.14;;;14.32;60.67
60642;BME280;46837;52.446;-1.930;2023-06-14T03:47:09;100463.34;;;14.31;60.72
60642;BME280;46837;52.446;-1.930;2023-06-14T03:48:09;100467.05;;;14.34;60.62
60642;BME280;46837;52.446;-1.930;2023-06-14T03:49:09;100468.12;;;14.32;60.77
60642;BME280;46837;52.446;-1.930;2023-06-14T03:50:09;100467.98;;;14.35;60.65
60642;BME280;46837;52.446;-1.930;2023-06-14T03:51:09;100470.82;;;14.29;60.91
60642;BME280;46837;52.446;-1.930;2023-06-14T03:52:09;100467.96;;;14.31;60.88
60642;BME280;46837;52.446;-1.930;2023-06-14T03:53:09;100474.20;;;14.28;61.03
60642;BME280;46837;52.446;-1.930;2023-06-14T03:54:09;100473.32;;;14.33;60.75
60642;BME280;46837;52.446;-1.930;2023-06-14T03:55:09;100472.63;;;14.31;60.83
60642;BME280;46837;52.446;-1.930;2023-06-14T03:56:09;100471.95;;;14.35;60.68
60642;BME280;46837;52.446;-1.930;2023-06-14T03:57:09;100472.64;;;14.36;60.60
60642;BME280;46837;52.446;-1.930;2023-06-14T03:58:09;100471.86;;;14.37;60.52
60642;BME280;46837;52.446;-1.930;2023-06-14T03:59:09;100471.18;;;14.35;60.52
60642;BME280;46837;52.446;-1.930;2023-06-14T04:00:09;100472.39;;;14.33;60.60
60642;BME280;46837;52.446;-1.930;2023-06-14T04:01:09;100476.21;;;14.30;60.77
60642;BME280;46837;52.446;-1.930;2023-06-14T04:02:09;100473.51;;;14.30;60.69
60642;BME280;46837;52.446;-1.930;2023-06-14T04:03:09;100472.38;;;14.28;60.72
60642;BME280;46837;52.446;-1.930;2023-06-14T04:04:12;100470.40;;;14.27;60.84
60642;BME280;46837;52.446;-1.930;2023-06-14T04:05:11;100467.24;;;14.24;60.78
60642;BME280;46837;52.446;-1.930;2023-06-14T04:06:09;100468.01;;;14.23;60.89
60642;BME280;46837;52.446;-1.930;2023-06-14T04:07:09;100469.41;;;14.19;61.04
60642;BME280;46837;52.446;-1.930;2023-06-14T04:08:11;100472.10;;;14.21;61.02
60642;BME280;46837;52.446;-1.930;2023-06-14T04:09:09;100468.56;;;14.16;61.17
60642;BME280;46837;52.446;-1.930;2023-06-14T04:10:09;100469.11;;;14.22;61.03
60642;BME280;46837;52.446;-1.930;2023-06-14T04:11:09;100468.00;;;14.17;61.16
60642;BME280;46837;52.446;-1.930;2023-06-14T04:12:09;100471.00;;;14.19;61.09
60642;BME280;46837;52.446;-1.930;2023-06-14T04:13:09;100468.54;;;14.19;61.26
60642;BME280;46837;52.446;-1.930;2023-06-14T04:14:09;100468.34;;;14.15;61.34
60642;BME280;46837;52.446;-1.930;2023-06-14T04:15:11;100469.30;;;14.13;61.36
60642;BME280;46837;52.446;-1.930;2023-06-14T04:16:09;100471.66;;;14.12;61.46
60642;BME280;46837;52.446;-1.930;2023-06-14T04:17:09;100466.33;;;14.13;61.40
60642;BME280;46837;52.446;-1.930;2023-06-14T04:18:09;100468.83;;;14.15;61.43
60642;BME280;46837;52.446;-1.930;2023-06-14T04:19:09;100468.03;;;14.12;61.42
60642;BME280;46837;52.446;-1.930;2023-06-14T04:20:09;100462.01;;;14.09;61.56
60642;BME280;46837;52.446;-1.930;2023-06-14T04:21:09;100462.56;;;14.09;61.52
60642;BME280;46837;52.446;-1.930;2023-06-14T04:22:09;100461.18;;;14.10;61.53
60642;BME280;46837;52.446;-1.930;2023-06-14T04:23:13;100458.46;;;14.05;61.79
60642;BME280;46837;52.446;-1.930;2023-06-14T04:24:09;100458.91;;;14.12;61.63
60642;BME280;46837;52.446;-1.930;2023-06-14T04:25:09;100459.73;;;14.13;61.57
60642;BME280;46837;52.446;-1.930;2023-06-14T04:26:09;100456.68;;;14.15;61.42
60642;BME280;46837;52.446;-1.930;2023-06-14T04:27:09;100459.15;;;14.08;61.64
60642;BME280;46837;52.446;-1.930;2023-06-14T04:28:09;100460.78;;;14.12;61.63
60642;BME280;46837;52.446;-1.930;2023-06-14T04:29:09;100456.95;;;14.09;61.72
60642;BME280;46837;52.446;-1.930;2023-06-14T04:30:09;100458.66;;;14.11;61.57
60642;BME280;46837;52.446;-1.930;2023-06-14T04:31:09;100461.07;;;14.11;61.62
60642;BME280;46837;52.446;-1.930;2023-06-14T04:32:09;100461.57;;;14.09;61.81
60642;BME280;46837;52.446;-1.930;2023-06-14T04:33:09;100461.55;;;14.11;61.74
60642;BME280;46837;52.446;-1.930;2023-06-14T04:34:09;100460.91;;;14.10;61.78
60642;BME280;46837;52.446;-1.930;2023-06-14T04:35:09;100458.62;;;14.07;61.99
60642;BME280;46837;52.446;-1.930;2023-06-14T04:36:09;100459.35;;;14.12;61.80
60642;BME280;46837;52.446;-1.930;2023-06-14T04:37:09;100460.64;;;14.18;61.65
60642;BME280;46837;52.446;-1.930;2023-06-14T04:38:09;100457.84;;;14.15;61.70
60642;BME280;46837;52.446;-1.930;2023-06-14T04:39:09;100458.52;;;14.14;61.74
60642;BME280;46837;52.446;-1.930;2023-06-14T04:40:09;100458.08;;;14.11;61.96
60642;BME280;46837;52.446;-1.930;2023-06-14T04:41:09;100460.04;;;14.16;61.90
60642;BME280;46837;52.446;-1.930;2023-06-14T04:42:10;100454.98;;;14.16;61.71
60642;BME280;46837;52.446;-1.930;2023-06-14T04:43:09;100454.38;;;14.17;61.87
60642;BME280;46837;52.446;-1.930;2023-06-14T04:44:09;100458.69;;;14.19;61.62
60642;BME280;46837;52.446;-1.930;2023-06-14T04:45:09;100459.38;;;14.22;61.59
60642;BME280;46837;52.446;-1.930;2023-06-14T04:46:09;100462.73;;;14.23;61.54
60642;BME280;46837;52.446;-1.930;2023-06-14T04:47:09;100457.71;;;14.26;61.49
60642;BME280;46837;52.446;-1.930;2023-06-14T04:48:09;100454.74;;;14.28;61.52
60642;BME280;46837;52.446;-1.930;2023-06-14T04:49:09;100457.18;;;14.24;61.61
60642;BME280;46837;52.446;-1.930;2023-06-14T04:50:09;100462.38;;;14.25;61.65
60642;BME280;46837;52.446;-1.930;2023-06-14T04:51:09;100458.72;;;14.23;61.85
60642;BME280;46837;52.446;-1.930;2023-06-14T04:52:09;100456.19;;;14.25;61.77
60642;BME280;46837;52.446;-1.930;2023-06-14T04:53:09;100457.54;;;14.27;61.74
60642;BME280;46837;52.446;-1.930;2023-06-14T04:54:09;100453.23;;;14.30;61.63
60642;BME280;46837;52.446;-1.930;2023-06-14T04:55:09;100454.68;;;14.33;61.50
60642;BME280;46837;52.446;-1.930;2023-06-14T04:56:09;100454.61;;;14.29;61.73
60642;BME280;46837;52.446;-1.930;2023-06-14T04:57:09;100455.95;;;14.28;61.73
60642;BME280;46837;52.446;-1.930;2023-06-14T04:58:09;100457.57;;;14.25;61.76
60642;BME280;46837;52.446;-1.930;2023-06-14T04:59:09;100458.01;;;14.29;61.70
60642;BME280;46837;52.446;-1.930;2023-06-14T05:00:09;100458.42;;;14.28;61.64
60642;BME280;46837;52.446;-1.930;2023-06-14T05:01:09;100455.83;;;14.28;61.78
60642;BME280;46837;52.446;-1.930;2023-06-14T05:02:09;100460.07;;;14.25;61.73
60642;BME280;46837;52.446;-1.930;2023-06-14T05:03:09;100456.80;;;14.22;61.67
60642;BME280;46837;52.446;-1.930;2023-06-14T05:04:09;100457.38;;;14.28;61.69
60642;BME280;46837;52.446;-1.930;2023-06-14T05:05:10;100453.53;;;14.27;61.80
60642;BME280;46837;52.446;-1.930;2023-06-14T05:06:09;100453.25;;;14.26;61.96
60642;BME280;46837;52.446;-1.930;2023-06-14T05:07:09;100452.84;;;14.31;61.73
60642;BME280;46837;52.446;-1.930;2023-06-14T05:08:09;100457.52;;;14.30;61.87
60642;BME280;46837;52.446;-1.930;2023-06-14T05:09:09;100453.94;;;14.32;61.82
60642;BME280;46837;52.446;-1.930;2023-06-14T05:10:09;100458.50;;;14.38;61.58
60642;BME280;46837;52.446;-1.930;2023-06-14T05:11:09;100455.34;;;14.42;61.46
60642;BME280;46837;52.446;-1.930;2023-06-14T05:12:10;100461.39;;;14.40;61.52
60642;BME280;46837;52.446;-1.930;2023-06-14T05:13:09;100464.00;;;14.36;61.75
60642;BME280;46837;52.446;-1.930;2023-06-14T05:14:09;100464.96;;;14.41;61.50
60642;BME280;46837;52.446;-1.930;2023-06-14T05:15:09;100464.96;;;14.42;61.57
60642;BME280;46837;52.446;-1.930;2023-06-14T05:16:09;100464.49;;;14.44;61.56